Time;durP1;ratioP1;P1;durP2;ratioP2;P2;SDS_P1;SDS_P2;PMS_P1;PMS_P2;Temp;Humidity;BMP_temperature;BMP_pressure;BME280_temperature;BME280_humidity;BME280_pressure;Samples;Min_cycle;Max_cycle;Signal;HPM_P1;HPM_P2
2021/07/29 00:00:52;;;;;;;6.97;1.97;;;;;;;16.96;100.00;-19607.03;5079831;28;20024;-71
2021/07/29 00:03:18;;;;;;;5.13;2.10;;;;;;;16.91;100.00;-19605.72;5080009;28;20285;-71
2021/07/29 00:05:43;;;;;;;4.13;1.80;;;;;;;16.95;100.00;-19606.63;5071148;28;20090;-71
2021/07/29 00:08:09;;;;;;;3.67;1.60;;;;;;;16.90;100.00;-19605.47;5081938;28;20124;-71
2021/07/29 00:10:34;;;;;;;3.80;1.50;;;;;;;16.97;100.00;-19607.16;5080287;28;20020;-69
2021/07/29 00:13:00;;;;;;;4.17;1.80;;;;;;;16.87;100.00;-19604.53;5080186;28;20424;-71
2021/07/29 00:15:25;;;;;;;3.43;1.73;;;;;;;16.82;100.00;-19603.38;5080300;28;20348;-71
2021/07/29 00:20:41;;;;;;;3.37;1.70;;;;;;;16.92;100.00;-19605.97;5066346;28;20040;-72
2021/07/29 00:23:07;;;;;;;5.80;1.77;;;;;;;17.05;100.00;-19609.13;5080454;28;20109;-72
2021/07/29 00:25:32;;;;;;;3.90;1.77;;;;;;;16.94;100.00;-19606.50;5079815;28;20376;-71
2021/07/29 00:27:58;;;;;;;3.53;1.70;;;;;;;17.00;100.00;-19607.94;5079899;28;20020;-71
2021/07/29 00:30:25;;;;;;;7.30;1.90;;;;;;;17.06;100.00;-19609.38;5081754;28;20027;-71
2021/07/29 00:32:52;;;;;;;3.10;1.50;;;;;;;17.01;100.00;-19608.06;5084362;28;20027;-71
2021/07/29 00:35:18;;;;;;;3.50;1.70;;;;;;;17.00;100.00;-19607.94;5080190;28;20107;-69
2021/07/29 00:37:48;;;;;;;5.00;1.63;;;;;;;17.04;100.00;-19608.84;5084379;28;20315;-69
2021/07/29 00:40:17;;;;;;;4.30;1.90;;;;;;;16.98;100.00;-19607.56;5078175;28;20232;-69
2021/07/29 00:42:43;;;;;;;4.10;1.93;;;;;;;17.02;100.00;-19608.34;5084930;28;20027;-69
2021/07/29 00:45:09;;;;;;;2.53;1.37;;;;;;;17.00;100.00;-19607.94;5085201;28;20036;-71
2021/07/29 00:47:39;;;;;;;6.60;1.63;;;;;;;16.93;100.00;-19606.25;5083601;28;20024;-71
2021/07/29 00:50:06;;;;;;;4.23;1.73;;;;;;;16.86;100.00;-19604.28;5076871;28;20023;-71
2021/07/29 00:52:32;;;;;;;2.63;1.50;;;;;;;16.78;100.00;-19602.31;5082408;28;20023;-71
2021/07/29 00:54:58;;;;;;;3.73;1.80;;;;;;;16.75;100.00;-19601.41;5079759;28;20449;-71
2021/07/29 00:57:24;;;;;;;4.50;1.77;;;;;;;16.78;100.00;-19602.31;5079834;28;20024;-71
2021/07/29 00:59:49;;;;;;;5.83;2.20;;;;;;;16.78;100.00;-19602.31;5079257;28;20420;-71
2021/07/29 01:02:15;;;;;;;4.57;1.40;;;;;;;16.89;100.00;-19605.19;5078811;28;20270;-74
2021/07/29 01:04:41;;;;;;;2.60;1.27;;;;;;;16.93;100.00;-19606.25;5078232;28;20285;-74
2021/07/29 01:07:06;;;;;;;4.00;1.53;;;;;;;16.80;100.00;-19602.84;5079198;28;20089;-75
2021/07/29 01:09:32;;;;;;;3.30;1.67;;;;;;;16.85;100.00;-19604.16;5073295;28;20030;-75
2021/07/29 01:11:57;;;;;;;3.07;1.40;;;;;;;16.74;100.00;-19601.16;5075972;28;20103;-75
2021/07/29 01:14:23;;;;;;;3.43;1.60;;;;;;;16.75;100.00;-19601.53;5093000;28;20124;-72
2021/07/29 01:16:48;;;;;;;3.37;1.40;;;;;;;16.72;100.00;-19600.63;5080995;28;20515;-72
2021/07/29 01:19:14;;;;;;;5.73;2.20;;;;;;;16.69;100.00;-19599.97;5097649;28;20032;-72
2021/07/29 01:21:41;;;;;;;3.20;1.47;;;;;;;16.71;100.00;-19600.50;5087641;28;20217;-72
2021/07/29 01:24:07;;;;;;;3.53;1.70;;;;;;;16.68;100.00;-19599.72;5085102;28;20027;-72
2021/07/29 01:26:33;;;;;;;4.87;1.67;;;;;;;16.55;100.00;-19596.31;5081113;28;20101;-72
2021/07/29 01:28:59;;;;;;;3.57;1.53;;;;;;;16.46;100.00;-19594.09;5086808;28;20028;-72
2021/07/29 01:31:28;;;;;;;6.73;2.00;;;;;;;16.32;100.00;-19590.56;5080619;28;20039;-72
2021/07/29 01:33:55;;;;;;;4.73;1.97;;;;;;;16.28;100.00;-19589.38;5089104;28;20035;-72
2021/07/29 01:36:20;;;;;;;6.87;1.73;;;;;;;16.31;100.00;-19590.31;5080583;28;20134;-72
2021/07/29 01:38:46;;;;;;;4.90;1.53;;;;;;;16.42;100.00;-19593.19;5084362;28;20680;-72
2021/07/29 01:41:12;;;;;;;5.40;1.70;;;;;;;16.24;100.00;-19588.47;5081190;28;20411;-72
2021/07/29 01:43:37;;;;;;;3.83;1.70;;;;;;;16.22;100.00;-19587.94;5088688;28;20480;-72
2021/07/29 01:46:03;;;;;;;4.53;1.50;;;;;;;16.23;100.00;-19588.06;5080773;28;20279;-72
2021/07/29 01:48:29;;;;;;;4.63;1.70;;;;;;;16.27;100.00;-19589.13;5081018;28;20040;-71
2021/07/29 01:50:55;;;;;;;5.33;1.80;;;;;;;16.25;100.00;-19588.59;5078623;28;20034;-72
2021/07/29 01:53:21;;;;;;;7.83;1.67;;;;;;;16.24;100.00;-19588.34;5085844;28;20264;-72
2021/07/29 01:55:47;;;;;;;4.73;1.93;;;;;;;16.24;100.00;-19588.47;5078544;28;20360;-72
2021/07/29 01:58:14;;;;;;;4.90;2.03;;;;;;;16.27;100.00;-19589.25;5084344;28;20252;-72
2021/07/29 02:00:41;;;;;;;5.53;1.70;;;;;;;16.29;100.00;-19589.78;5080742;28;20036;-72
2021/07/29 02:03:07;;;;;;;2.90;1.50;;;;;;;16.29;100.00;-19589.78;5085821;28;20035;-72
2021/07/29 02:05:33;;;;;;;6.30;1.70;;;;;;;16.23;100.00;-19588.22;5078906;28;20457;-72
2021/07/29 02:07:59;;;;;;;3.43;1.60;;;;;;;16.11;100.00;-19585.22;5082357;28;20043;-72
2021/07/29 02:10:24;;;;;;;4.13;1.53;;;;;;;16.03;100.00;-19582.97;5079062;28;20020;-72
2021/07/29 02:12:51;;;;;;;4.63;1.80;;;;;;;15.99;100.00;-19581.94;5082751;28;20027;-72
2021/07/29 02:15:17;;;;;;;3.77;1.77;;;;;;;15.94;100.00;-19580.75;5080499;28;20055;-72
2021/07/29 02:17:43;;;;;;;5.67;2.10;;;;;;;15.83;100.00;-19578.00;5085521;28;20038;-72
2021/07/29 02:20:09;;;;;;;3.37;1.43;;;;;;;15.82;100.00;-19577.75;5082143;28;20456;-72
2021/07/29 02:22:35;;;;;;;3.37;1.70;;;;;;;15.87;100.00;-19578.78;5084185;28;20440;-72
2021/07/29 02:25:00;;;;;;;8.97;2.80;;;;;;;15.88;100.00;-19579.06;5082116;28;20241;-72
2021/07/29 02:27:26;;;;;;;5.10;1.80;;;;;;;15.81;100.00;-19577.38;5084092;28;20878;-72
2021/07/29 02:29:52;;;;;;;5.67;1.90;;;;;;;15.91;100.00;-19579.84;5081955;28;20296;-72
2021/07/29 02:32:18;;;;;;;4.70;1.90;;;;;;;15.76;100.00;-19576.19;5083407;28;20347;-72
2021/07/29 02:34:44;;;;;;;4.37;1.60;;;;;;;15.73;100.00;-19575.28;5082327;28;20428;-72
2021/07/29 02:37:10;;;;;;;3.90;1.77;;;;;;;15.87;100.00;-19578.94;5083260;28;20702;-69
2021/07/29 02:39:40;;;;;;;5.33;1.80;;;;;;;15.82;100.00;-19577.75;5068374;28;20280;-69
2021/07/29 02:42:09;;;;;;;5.60;2.00;;;;;;;15.94;100.00;-19580.63;5081555;28;20528;-69
2021/07/29 02:44:34;;;;;;;3.87;1.70;;;;;;;15.95;100.00;-19580.88;5081034;28;20484;-68
2021/07/29 02:47:00;;;;;;;6.00;2.10;;;;;;;15.97;100.00;-19581.41;5081932;28;20107;-68
2021/07/29 02:49:26;;;;;;;7.53;2.17;;;;;;;15.91;100.00;-19579.97;5082278;28;20027;-68
2021/07/29 02:51:51;;;;;;;3.97;1.40;;;;;;;15.89;100.00;-19579.31;5081478;28;20031;-69
2021/07/29 02:54:17;;;;;;;8.93;1.97;;;;;;;15.93;100.00;-19580.38;5083607;28;20032;-70
2021/07/29 02:56:42;;;;;;;5.53;1.93;;;;;;;15.91;100.00;-19579.84;5082823;28;20036;-70
2021/07/29 02:59:08;;;;;;;3.97;1.70;;;;;;;16.03;100.00;-19582.97;5083598;28;20031;-70
2021/07/29 03:01:33;;;;;;;3.83;2.00;;;;;;;16.02;100.00;-19582.72;5081751;28;20111;-70
2021/07/29 03:03:59;;;;;;;6.50;1.50;;;;;;;16.02;100.00;-19582.84;5091775;28;20200;-70
2021/07/29 03:06:24;;;;;;;4.27;1.60;;;;;;;16.03;100.00;-19582.97;5081418;28;20024;-70
2021/07/29 03:08:50;;;;;;;5.23;1.40;;;;;;;16.05;100.00;-19583.50;5085166;28;20420;-70
2021/07/29 03:11:16;;;;;;;5.97;1.70;;;;;;;16.03;100.00;-19583.13;5081417;28;20035;-70
2021/07/29 03:13:41;;;;;;;5.80;2.10;;;;;;;16.09;100.00;-19584.69;5074948;28;20035;-70
2021/07/29 03:16:07;;;;;;;5.57;1.87;;;;;;;16.08;100.00;-19584.41;5073165;28;20044;-70
2021/07/29 03:18:33;;;;;;;4.20;1.53;;;;;;;16.11;100.00;-19585.06;5068872;28;20040;-70
2021/07/29 03:20:58;;;;;;;4.70;1.70;;;;;;;16.02;100.00;-19582.84;5061872;28;20176;-71
2021/07/29 03:23:24;;;;;;;5.33;2.03;;;;;;;15.99;100.00;-19582.06;5065355;28;20042;-71
2021/07/29 03:25:51;;;;;;;4.17;1.80;;;;;;;16.00;100.00;-19582.19;5072201;28;20035;-70
2021/07/29 03:28:17;;;;;;;4.87;1.70;;;;;;;15.97;100.00;-19581.41;5065422;28;20083;-70
2021/07/29 03:30:43;;;;;;;6.10;2.07;;;;;;;15.90;100.00;-19579.59;5060510;28;20029;-70
2021/07/29 03:33:10;;;;;;;5.33;1.50;;;;;;;15.98;100.00;-19581.69;5063723;28;20268;-70
2021/07/29 03:35:39;;;;;;;5.53;1.87;;;;;;;15.92;100.00;-19580.09;5070533;28;20236;-70
2021/07/29 03:38:05;;;;;;;6.07;1.97;;;;;;;15.92;100.00;-19580.09;5066490;28;20032;-70
2021/07/29 03:40:32;;;;;;;5.73;2.20;;;;;;;15.90;100.00;-19579.59;5063402;28;20020;-70
2021/07/29 03:43:02;;;;;;;4.57;1.80;;;;;;;15.94;100.00;-19580.63;5069058;28;20028;-70
2021/07/29 03:45:32;;;;;;;5.80;2.00;;;;;;;15.98;100.00;-19581.69;5061226;28;20028;-70
2021/07/29 03:47:59;;;;;;;5.43;1.77;;;;;;;15.97;100.00;-19581.41;5076753;28;20501;-70
2021/07/29 03:50:24;;;;;;;4.10;1.73;;;;;;;16.02;100.00;-19582.72;5078291;28;20024;-70
2021/07/29 03:52:50;;;;;;;6.80;1.80;;;;;;;16.02;100.00;-19582.72;5077593;28;20405;-70
2021/07/29 03:55:16;;;;;;;5.30;1.83;;;;;;;15.96;100.00;-19581.16;5074230;28;20067;-70
2021/07/29 03:57:42;;;;;;;4.97;1.87;;;;;;;15.98;100.00;-19581.81;5070780;28;20520;-70
2021/07/29 04:00:09;;;;;;;5.87;1.80;;;;;;;15.93;100.00;-19580.50;5058744;28;20108;-70
2021/07/29 04:02:34;;;;;;;5.03;1.73;;;;;;;15.90;100.00;-19579.59;5062332;28;20515;-70
2021/07/29 04:05:01;;;;;;;3.10;1.60;;;;;;;15.93;100.00;-19580.38;5060197;28;20024;-70
2021/07/29 04:07:29;;;;;;;6.77;1.60;;;;;;;15.95;100.00;-19580.88;5062777;28;20396;-70
2021/07/29 04:09:55;;;;;;;4.93;1.77;;;;;;;15.95;100.00;-19581.03;5060887;28;20035;-70
2021/07/29 04:12:21;;;;;;;7.00;1.97;;;;;;;15.81;100.00;-19577.50;5061807;28;20567;-72
2021/07/29 04:14:46;;;;;;;6.50;1.87;;;;;;;15.78;100.00;-19576.72;5067665;28;20055;-72
2021/07/29 04:17:12;;;;;;;5.60;1.87;;;;;;;15.81;100.00;-19577.38;5079087;28;20247;-72
2021/07/29 04:19:37;;;;;;;3.80;1.50;;;;;;;15.76;100.00;-19576.19;5081465;28;20272;-72
2021/07/29 04:22:07;;;;;;;4.63;1.80;;;;;;;15.71;100.00;-19574.88;5080078;28;20127;-72
2021/07/29 04:24:33;;;;;;;4.47;1.40;;;;;;;15.76;100.00;-19576.06;5079242;28;20024;-73
2021/07/29 04:27:00;;;;;;;5.50;1.50;;;;;;;15.84;100.00;-19578.16;5078384;28;20024;-72
2021/07/29 04:29:26;;;;;;;5.37;1.50;;;;;;;15.87;100.00;-19578.78;5081576;28;20035;-70
2021/07/29 04:31:53;;;;;;;6.70;1.80;;;;;;;15.97;100.00;-19581.41;5078801;28;20039;-72
2021/07/29 04:34:19;;;;;;;5.80;1.80;;;;;;;15.99;100.00;-19582.06;5080556;28;20536;-72
2021/07/29 04:36:46;;;;;;;3.60;1.57;;;;;;;15.96;100.00;-19581.16;5079348;28;20431;-70
2021/07/29 04:39:11;;;;;;;5.60;1.60;;;;;;;15.99;100.00;-19581.94;5079129;28;20032;-70
2021/07/29 04:41:41;;;;;;;3.93;1.70;;;;;;;15.86;100.00;-19578.53;5079501;28;20020;-70
2021/07/29 04:44:12;;;;;;;5.07;1.90;;;;;;;15.87;100.00;-19578.78;5079710;28;20028;-70
2021/07/29 04:46:39;;;;;;;4.07;1.70;;;;;;;15.97;100.00;-19581.41;5079678;28;20756;-70
2021/07/29 04:49:05;;;;;;;5.33;1.83;;;;;;;16.34;100.00;-19590.94;5080787;28;20110;-70
2021/07/29 04:51:35;;;;;;;4.27;1.77;;;;;;;17.06;100.00;-19609.38;5078301;28;20077;-70
2021/07/29 04:54:01;;;;;;;3.50;1.63;;;;;;;17.25;100.00;-19614.47;5078738;28;20020;-70
2021/07/29 04:56:26;;;;;;;5.13;1.53;;;;;;;17.19;100.00;-19612.78;5079284;28;20107;-70
2021/07/29 04:58:52;;;;;;;4.53;1.60;;;;;;;17.34;100.00;-19616.69;5083282;28;20024;-69
2021/07/29 05:01:18;;;;;;;4.43;1.77;;;;;;;17.50;100.00;-19620.88;5079621;28;20290;-69
2021/07/29 05:03:44;;;;;;;6.17;1.50;;;;;;;17.06;100.00;-19609.38;5081391;28;20031;-70
2021/07/29 05:06:09;;;;;;;2.77;1.40;;;;;;;16.75;100.00;-19601.53;5079163;28;20028;-70
2021/07/29 05:08:35;;;;;;;4.10;1.50;;;;;;;16.67;100.00;-19599.44;5080550;28;20248;-70
2021/07/29 05:11:05;;;;;;;4.10;1.50;;;;;;;17.35;100.00;-19616.94;5079100;28;20392;-70
2021/07/29 05:13:31;;;;;;;3.57;1.63;;;;;;;18.07;100.00;-19635.47;5079558;28;20051;-69
2021/07/29 05:15:56;;;;;;;4.47;1.53;;;;;;;18.01;100.00;-19633.91;5078999;28;20047;-69
2021/07/29 05:18:22;;;;;;;4.73;1.60;;;;;;;17.25;100.00;-19614.34;5089819;28;20492;-70
2021/07/29 05:20:48;;;;;;;3.53;1.47;;;;;;;16.88;100.00;-19604.94;5081640;28;20052;-70
2021/07/29 05:23:14;;;;;;;7.27;1.77;;;;;;;16.72;100.00;-19600.75;5085750;28;20024;-70
2021/07/29 05:25:39;;;;;;;6.83;1.70;;;;;;;16.55;100.00;-19596.31;5081385;28;20020;-71
2021/07/29 05:28:05;;;;;;;2.37;1.37;;;;;;;16.48;100.00;-19594.63;5087270;28;20027;-71
2021/07/29 05:30:30;;;;;;;5.97;1.90;;;;;;;16.42;100.00;-19593.03;5080699;28;20030;-70
2021/07/29 05:32:57;;;;;;;3.63;1.57;;;;;;;16.35;100.00;-19591.34;5086075;28;20509;-70
2021/07/29 05:35:22;;;;;;;4.67;1.53;;;;;;;16.30;100.00;-19590.03;5080612;28;20016;-70
2021/07/29 05:37:48;;;;;;;4.40;1.47;;;;;;;16.23;100.00;-19588.22;5084772;28;20027;-70
2021/07/29 05:40:13;;;;;;;6.97;1.93;;;;;;;16.93;100.00;-19606.25;5081016;28;20024;-70
2021/07/29 05:42:39;;;;;;;4.70;1.53;;;;;;;17.79;100.00;-19628.16;5082776;28;20028;-69
2021/07/29 05:45:05;;;;;;;5.47;1.70;;;;;;;17.74;100.00;-19626.88;5081171;28;20058;-70
2021/07/29 05:47:31;;;;;;;5.17;1.60;;;;;;;18.24;100.00;-19639.66;5082520;28;20145;-69
2021/07/29 05:49:56;;;;;;;3.60;1.60;;;;;;;18.44;100.00;-19644.84;5082382;28;20111;-69
2021/07/29 05:52:22;;;;;;;7.13;1.40;;;;;;;18.62;100.00;-19649.41;5084819;28;20028;-69
2021/07/29 05:54:47;;;;;;;4.13;1.60;;;;;;;19.04;100.00;-19660.22;5085442;28;20435;-69
2021/07/29 05:57:13;;;;;;;2.73;1.23;;;;;;;19.13;100.00;-19662.44;5083394;28;20056;-69
2021/07/29 05:59:38;;;;;;;4.30;1.40;;;;;;;19.04;100.00;-19660.22;5085776;28;20024;-70
2021/07/29 06:02:04;;;;;;;5.40;1.33;;;;;;;19.44;100.00;-19670.38;5082492;28;20536;-69
2021/07/29 06:04:30;;;;;;;3.80;1.40;;;;;;;19.45;100.00;-19670.66;5084876;28;20046;-69
2021/07/29 06:06:55;;;;;;;4.00;1.48;;;;;;;19.03;100.00;-19659.97;5082591;28;20056;-69
2021/07/29 06:09:20;;;;;;;3.33;1.38;;;;;;;18.23;100.00;-19639.50;5083490;28;20192;-70
2021/07/29 06:11:46;;;;;;;6.47;1.60;;;;;;;18.44;100.00;-19645.00;5082102;28;20081;-70
2021/07/29 06:14:12;;;;;;;3.40;1.43;;;;;;;18.80;100.00;-19653.97;5095578;28;20028;-69
2021/07/29 06:16:37;;;;;;;6.20;1.50;;;;;;;19.51;100.00;-19672.34;5082303;28;20471;-69
2021/07/29 06:19:14;;;;;;;4.80;1.30;;;;;;;18.81;100.00;-19654.25;5094295;28;20032;-70
2021/07/29 06:21:40;;;;;;;3.65;1.38;;;;;;;18.12;100.00;-19636.66;5082147;28;20365;-70
2021/07/29 06:24:05;;;;;;;4.20;1.83;;;;;;;17.69;100.00;-19625.56;5093237;28;20093;-70
2021/07/29 06:26:31;;;;;;;4.23;2.10;;;;;;;17.57;100.00;-19622.56;5081711;28;20016;-70
2021/07/29 06:28:57;;;;;;;4.40;1.33;;;;;;;17.38;100.00;-19617.72;5092015;28;20468;-70
2021/07/29 06:31:22;;;;;;;4.73;1.60;;;;;;;17.37;100.00;-19617.47;5082060;28;20062;-70
2021/07/29 06:33:48;;;;;;;5.63;1.83;;;;;;;18.14;100.00;-19637.16;5090296;28;20547;-70
2021/07/29 06:36:13;;;;;;;5.67;1.50;;;;;;;18.46;100.00;-19645.38;5082015;28;20206;-69
2021/07/29 06:38:39;;;;;;;2.50;1.33;;;;;;;18.94;100.00;-19657.75;5088451;28;20031;-69
2021/07/29 06:41:07;;;;;;;4.57;1.43;;;;;;;19.14;100.00;-19662.84;5081510;28;20039;-69
2021/07/29 06:43:34;;;;;;;5.18;1.33;;;;;;;18.68;100.00;-19651.13;5087796;28;20369;-69
2021/07/29 06:46:07;;;;;;;3.83;1.80;;;;;;;18.73;100.00;-19652.41;5081651;28;20504;-70
2021/07/29 06:48:33;;;;;;;4.15;1.60;;;;;;;18.76;100.00;-19653.06;5086339;28;20232;-69
2021/07/29 06:51:07;;;;;;;6.40;1.70;;;;;;;18.16;100.00;-19637.81;5081613;28;20412;-70
2021/07/29 06:53:35;;;;;;;4.37;1.60;;;;;;;18.35;100.00;-19642.66;5084869;28;20179;-70
2021/07/29 06:56:01;;;;;;;4.63;1.43;;;;;;;18.72;100.00;-19652.03;5081579;28;20024;-70
2021/07/29 06:58:26;;;;;;;2.73;1.30;;;;;;;18.40;100.00;-19643.94;5083733;28;20043;-70
2021/07/29 07:00:52;;;;;;;3.40;1.57;;;;;;;18.13;100.00;-19636.91;5080507;28;20275;-70
2021/07/29 07:03:18;;;;;;;5.97;1.50;;;;;;;17.77;100.00;-19627.66;5082186;28;20195;-70
2021/07/29 07:05:46;;;;;;;4.43;1.40;;;;;;;17.98;100.00;-19633.13;5081150;28;20099;-70
2021/07/29 07:08:15;;;;;;;3.97;1.50;;;;;;;17.67;100.00;-19625.03;5081861;28;20024;-70
2021/07/29 07:10:41;;;;;;;2.83;1.40;;;;;;;17.98;100.00;-19633.13;5080926;28;20020;-70
2021/07/29 07:13:06;;;;;;;5.20;1.60;;;;;;;18.15;100.00;-19637.56;5089664;28;20023;-70
2021/07/29 07:15:32;;;;;;;4.37;1.60;;;;;;;18.60;100.00;-19649.03;5078626;28;20067;-70
2021/07/29 07:17:58;;;;;;;4.50;1.80;;;;;;;18.58;100.00;-19648.50;5088021;28;20500;-70
2021/07/29 07:20:24;;;;;;;7.53;1.40;;;;;;;19.93;99.23;-19683.00;5084137;28;20032;-70
2021/07/29 07:22:50;;;;;;;3.72;1.20;;;;;;;18.88;100.00;-19656.19;5082895;28;20279;-70
2021/07/29 07:25:16;;;;;;;4.95;1.25;;;;;;;19.75;99.59;-19678.34;5083352;28;20025;-70
2021/07/29 07:27:42;;;;;;;4.63;1.15;;;;;;;20.35;91.84;-19693.66;5085445;28;20099;-70
2021/07/29 07:30:08;;;;;;;2.72;1.30;;;;;;;20.64;89.91;-19701.09;5084444;28;20028;-70
2021/07/29 07:32:33;;;;;;;3.70;1.50;;;;;;;19.88;93.90;-19681.84;5084616;28;20100;-70
2021/07/29 07:34:59;;;;;;;3.63;1.30;;;;;;;18.94;100.00;-19657.63;5084338;28;20048;-70
2021/07/29 07:37:24;;;;;;;3.17;1.50;;;;;;;19.96;93.01;-19683.66;5082907;28;20032;-69
2021/07/29 07:39:50;;;;;;;5.68;1.40;;;;;;;20.37;89.58;-19694.31;5084975;28;20028;-70
2021/07/29 07:42:15;;;;;;;5.57;1.25;;;;;;;21.16;83.44;-19714.34;5081717;28;20020;-70
2021/07/29 07:44:44;;;;;;;5.68;1.40;;;;;;;20.24;83.17;-19690.94;5085121;28;20055;-70
2021/07/29 07:47:10;;;;;;;4.38;1.35;;;;;;;20.29;85.41;-19692.13;5080867;28;20353;-70
2021/07/29 07:49:35;;;;;;;4.43;1.58;;;;;;;20.87;80.91;-19707.06;5084742;28;20043;-70
2021/07/29 07:52:01;;;;;;;4.18;1.63;;;;;;;20.95;86.99;-19709.00;5080533;28;20201;-70
2021/07/29 07:54:26;;;;;;;2.17;0.93;;;;;;;19.76;79.93;-19678.72;5084150;28;20036;-70
2021/07/29 07:56:52;;;;;;;3.80;1.08;;;;;;;19.14;91.88;-19662.84;5079933;28;20488;-70
2021/07/29 07:59:18;;;;;;;3.20;1.67;;;;;;;19.41;95.37;-19669.75;5082617;28;20416;-70
2021/07/29 08:01:44;;;;;;;5.35;1.70;;;;;;;20.60;80.40;-19700.03;5079795;28;20123;-70
2021/07/29 08:04:10;;;;;;;7.35;1.70;;;;;;;19.57;90.19;-19673.78;5081531;28;20043;-70
2021/07/29 08:06:36;;;;;;;4.18;1.55;;;;;;;20.07;80.76;-19686.53;5079600;28;20024;-70
2021/07/29 08:09:06;;;;;;;2.65;1.20;;;;;;;19.82;82.81;-19680.28;5080182;28;20031;-70
2021/07/29 08:11:32;;;;;;;3.80;1.30;;;;;;;20.17;81.29;-19689.13;5080731;28;20043;-70
2021/07/29 08:13:58;;;;;;;3.75;1.20;;;;;;;20.48;73.58;-19697.06;5091987;28;20032;-70
2021/07/29 08:16:23;;;;;;;4.53;1.38;;;;;;;21.62;69.27;-19726.28;5079838;28;20115;-70
2021/07/29 08:18:50;;;;;;;4.10;1.00;;;;;;;21.36;68.96;-19719.53;5081061;28;20035;-70
2021/07/29 08:21:16;;;;;;;5.90;1.30;;;;;;;21.70;66.46;-19728.09;5079802;28;20039;-70
2021/07/29 08:23:42;;;;;;;3.78;1.30;;;;;;;20.12;74.73;-19687.81;5092352;28;20028;-70
2021/07/29 08:26:10;;;;;;;2.65;0.90;;;;;;;20.22;70.97;-19690.28;5080769;28;20047;-70
2021/07/29 08:28:39;;;;;;;4.65;1.10;;;;;;;18.93;81.61;-19657.38;5092165;28;20411;-70
2021/07/29 08:31:09;;;;;;;5.38;1.30;;;;;;;18.89;88.78;-19656.31;5079332;28;20028;-70
2021/07/29 08:33:35;;;;;;;6.40;1.30;;;;;;;18.47;91.48;-19645.63;5092492;28;20031;-70
2021/07/29 08:36:01;;;;;;;3.10;1.30;;;;;;;18.42;88.18;-19644.34;5100022;28;20291;-70
2021/07/29 08:38:26;;;;;;;4.50;1.40;;;;;;;19.76;76.62;-19678.72;5099879;28;20280;-70
2021/07/29 08:40:53;;;;;;;1.95;0.90;;;;;;;19.13;79.54;-19662.44;5099116;28;20310;-70
2021/07/29 08:43:19;;;;;;;4.07;1.25;;;;;;;18.95;82.25;-19657.88;5089423;28;20032;-70
2021/07/29 08:45:47;;;;;;;3.90;1.23;;;;;;;20.30;73.74;-19692.50;5099569;28;20050;-70
2021/07/29 08:48:18;;;;;;;3.75;1.27;;;;;;;21.21;69.57;-19715.75;5099776;28;20524;-70
2021/07/29 08:50:44;;;;;;;5.05;1.30;;;;;;;20.94;67.96;-19708.75;5099901;28;20028;-70
2021/07/29 08:53:09;;;;;;;6.63;1.20;;;;;;;20.91;68.48;-19708.09;5099410;28;20479;-70
2021/07/29 08:55:36;;;;;;;4.60;1.20;;;;;;;21.26;66.46;-19716.94;5099516;28;20244;-70
2021/07/29 08:58:02;;;;;;;3.03;1.08;;;;;;;21.55;63.94;-19724.34;5099238;28;20074;-70
2021/07/29 09:00:27;;;;;;;4.40;1.05;;;;;;;21.61;63.31;-19725.88;5099788;28;20308;-70
2021/07/29 09:02:53;;;;;;;3.38;1.10;;;;;;;21.54;62.89;-19724.19;5099346;28;20031;-70
2021/07/29 09:05:23;;;;;;;2.30;0.98;;;;;;;21.28;62.83;-19717.44;5094180;28;20024;-70
2021/07/29 09:08:07;;;;;;;5.07;1.15;;;;;;;21.26;68.69;-19717.06;5084471;28;20020;-70
2021/07/29 09:10:38;;;;;;;5.60;1.17;;;;;;;20.31;67.07;-19692.75;5066941;28;20031;-70
2021/07/29 09:13:21;;;;;;;4.55;1.50;;;;;;;19.36;74.51;-19668.31;5085193;28;20492;-70
2021/07/29 09:16:08;;;;;;;4.15;1.20;;;;;;;19.10;73.25;-19661.78;5078844;28;20485;-70
2021/07/29 09:18:35;;;;;;;3.92;1.27;;;;;;;20.17;73.21;-19689.13;5080246;28;20150;-70
2021/07/29 09:21:10;;;;;;;4.13;1.20;;;;;;;21.57;69.10;-19724.97;5079129;28;20096;-70
2021/07/29 09:23:36;;;;;;;7.85;1.25;;;;;;;20.82;70.67;-19705.75;5087729;28;20020;-70
2021/07/29 09:26:01;;;;;;;2.83;1.02;;;;;;;21.94;65.97;-19734.31;5083176;28;20518;-70
2021/07/29 09:28:38;;;;;;;4.40;1.17;;;;;;;22.31;59.79;-19743.66;5094433;28;20031;-70
2021/07/29 09:31:21;;;;;;;9.57;1.25;;;;;;;21.07;62.58;-19712.13;5069736;28;20028;-70
2021/07/29 09:34:16;;;;;;;3.03;1.00;;;;;;;19.34;72.22;-19667.91;5094328;28;20032;-70
2021/07/29 09:36:41;;;;;;;3.72;1.35;;;;;;;18.64;83.38;-19650.06;5000041;28;20365;-70
2021/07/29 09:39:22;;;;;;;7.55;1.33;;;;;;;20.87;72.17;-19706.94;5009938;28;20117;-69
2021/07/29 09:42:18;;;;;;;4.37;1.10;;;;;;;22.07;67.14;-19737.56;4993479;28;20490;-70
2021/07/29 09:44:46;;;;;;;7.15;1.60;;;;;;;22.47;59.64;-19747.81;4992441;28;20041;-70
2021/07/29 09:47:11;;;;;;;6.50;1.15;;;;;;;22.14;60.29;-19739.38;4994327;28;20770;-70
2021/07/29 09:49:38;;;;;;;3.53;1.10;;;;;;;22.18;58.18;-19740.56;5006676;28;20029;-70
2021/07/29 09:52:04;;;;;;;3.10;1.02;;;;;;;21.73;59.85;-19728.88;4999763;28;20262;-70
2021/07/29 09:54:30;;;;;;;2.05;0.70;;;;;;;21.36;63.29;-19719.53;5006208;28;20358;-70
2021/07/29 09:56:55;;;;;;;4.65;1.10;;;;;;;21.87;62.42;-19732.50;4999668;28;20526;-70
2021/07/29 09:59:21;;;;;;;3.88;1.00;;;;;;;21.13;64.87;-19713.69;5004948;28;20132;-70
2021/07/29 10:01:50;;;;;;;4.05;0.90;;;;;;;21.02;65.11;-19710.97;4999401;28;20105;-70
2021/07/29 10:04:18;;;;;;;2.58;0.90;;;;;;;21.27;62.08;-19717.19;5003712;28;20042;-70
2021/07/29 10:06:47;;;;;;;2.92;1.00;;;;;;;22.62;57.96;-19751.69;4999421;28;20121;-70
2021/07/29 10:09:17;;;;;;;3.60;0.80;;;;;;;22.72;56.77;-19754.28;5001939;28;20041;-70
2021/07/29 10:11:47;;;;;;;4.38;1.13;;;;;;;22.57;54.85;-19750.41;4999733;28;20521;-70
2021/07/29 10:14:12;;;;;;;1.85;0.82;;;;;;;22.16;54.90;-19740.03;5077168;28;20107;-70
2021/07/29 10:16:50;;;;;;;4.10;1.20;;;;;;;22.22;55.14;-19741.47;5082596;28;20032;-70
2021/07/29 10:19:17;;;;;;;2.22;0.88;;;;;;;23.42;53.29;-19771.91;5083410;28;20024;-70
2021/07/29 10:21:44;;;;;;;3.25;1.20;;;;;;;22.62;54.73;-19751.69;5082474;28;20019;-70
2021/07/29 10:24:10;;;;;;;3.75;1.00;;;;;;;23.63;50.70;-19777.34;5082469;28;20477;-70
2021/07/29 10:27:13;;;;;;;3.78;1.10;;;;;;;22.00;52.40;-19735.88;5082442;28;20034;-70
2021/07/29 10:29:39;;;;;;;3.67;1.00;;;;;;;21.04;58.24;-19711.47;4979562;28;20050;-70
2021/07/29 10:32:10;;;;;;;3.47;1.05;;;;;;;20.18;59.96;-19689.38;4998968;28;20656;-70
2021/07/29 10:34:36;;;;;;;3.83;1.10;;;;;;;19.66;62.38;-19676.13;5009702;28;20049;-70
2021/07/29 10:37:08;;;;;;;4.75;1.40;;;;;;;19.90;63.37;-19682.38;4999115;28;20038;-70
2021/07/29 10:39:56;;;;;;;4.55;1.05;;;;;;;20.28;61.89;-19691.84;4989230;28;20307;-70
2021/07/29 10:42:26;;;;;;;3.47;1.20;;;;;;;20.48;61.64;-19697.19;5000687;28;20376;-70
2021/07/29 10:44:52;;;;;;;3.17;1.30;;;;;;;21.01;59.49;-19710.56;5005231;28;20030;-70
2021/07/29 10:47:43;;;;;;;3.67;1.27;;;;;;;21.17;59.70;-19714.72;4999991;28;20060;-70
2021/07/29 10:50:10;;;;;;;3.40;1.30;;;;;;;21.48;56.44;-19722.66;5001620;28;20324;-70
2021/07/29 10:52:38;;;;;;;2.55;1.13;;;;;;;21.21;54.87;-19715.63;5002329;28;20150;-71
2021/07/29 10:55:07;;;;;;;10.35;2.20;;;;;;;20.95;55.86;-19709.00;5001117;28;20026;-70
2021/07/29 10:57:32;;;;;;;2.65;1.10;;;;;;;21.14;54.78;-19713.81;5002341;28;20587;-70
2021/07/29 10:59:59;;;;;;;4.63;1.20;;;;;;;21.11;58.06;-19713.16;5000982;28;20044;-70
2021/07/29 11:02:49;;;;;;;2.65;1.10;;;;;;;20.85;57.34;-19706.53;5000653;28;20044;-70
2021/07/29 11:05:26;;;;;;;3.97;1.30;;;;;;;21.15;58.00;-19714.06;4986624;28;20505;-70
2021/07/29 11:07:51;;;;;;;4.13;1.40;;;;;;;21.64;56.75;-19726.66;5089733;28;20039;-70
2021/07/29 11:10:21;;;;;;;2.80;0.90;;;;;;;21.16;57.13;-19714.47;5081213;28;20032;-70
2021/07/29 11:12:48;;;;;;;6.55;1.40;;;;;;;21.61;58.43;-19726.03;5083487;28;20508;-70
2021/07/29 11:15:15;;;;;;;4.47;1.48;;;;;;;21.26;57.38;-19716.94;5080931;28;20046;-70
2021/07/29 11:17:41;;;;;;;3.72;1.15;;;;;;;20.22;57.92;-19690.41;5081865;28;20031;-70
2021/07/29 11:20:08;;;;;;;5.28;1.45;;;;;;;19.77;59.79;-19678.97;5078122;28;20102;-70
2021/07/29 11:22:48;;;;;;;3.30;1.65;;;;;;;19.23;66.83;-19665.06;5084556;28;20040;-70